Time;durP1;ratioP1;P1;durP2;ratioP2;P2;SDS_P1;SDS_P2;PMS_P1;PMS_P2;Temp;Humidity;BMP_temperature;BMP_pressure;BME280_temperature;BME280_humidity;BME280_pressure;Samples;Min_cycle;Max_cycle;Signal;HPM_P1;HPM_P2
2022/03/21 00:01:05;;;;;;;15.83;6.83;;;;;;;-3.00;62.45;102304.47;1678362;85;21064;-67
2022/03/21 00:03:33;;;;;;;18.12;7.35;;;;;;;-3.03;62.57;102300.04;1678582;85;21142;-67
2022/03/21 00:06:00;;;;;;;16.17;7.60;;;;;;;-3.06;62.97;102300.27;1712990;83;21062;-68
2022/03/21 00:08:28;;;;;;;14.45;7.25;;;;;;;-3.10;63.30;102291.91;1713091;82;21109;-67
2022/03/21 00:10:57;;;;;;;16.80;7.58;;;;;;;-3.12;63.53;102292.23;1713131;82;21062;-67
2022/03/21 00:13:26;;;;;;;15.35;8.05;;;;;;;-3.14;63.82;102295.13;1678546;85;21056;-67
2022/03/21 00:15:54;;;;;;;14.58;7.53;;;;;;;-3.16;63.83;102289.88;1712977;83;21236;-67
2022/03/21 00:18:23;;;;;;;17.23;7.78;;;;;;;-3.19;63.97;102284.56;1678627;85;21096;-67
2022/03/21 00:20:56;;;;;;;16.17;7.50;;;;;;;-3.21;64.02;102284.47;1678658;85;21080;-66
2022/03/21 00:23:24;;;;;;;13.70;7.22;;;;;;;-3.23;63.97;102283.50;1713081;83;21078;-68
2022/03/21 00:25:53;;;;;;;18.05;8.48;;;;;;;-3.25;64.03;102283.81;1713328;82;21573;-68
2022/03/21 00:28:19;;;;;;;17.75;7.62;;;;;;;-3.27;64.02;102278.10;1678474;85;21882;-67
2022/03/21 00:30:47;;;;;;;15.88;8.23;;;;;;;-3.28;64.21;102277.22;1713066;83;21094;-67
2022/03/21 00:33:13;;;;;;;15.03;8.15;;;;;;;-3.28;64.55;102275.93;1678531;85;21045;-67
2022/03/21 00:35:42;;;;;;;16.67;8.45;;;;;;;-3.28;65.00;102275.93;1712870;83;21043;-68
2022/03/21 00:38:15;;;;;;;22.27;9.00;;;;;;;-3.30;64.94;102271.09;1678566;85;21066;-67
2022/03/21 00:40:44;;;;;;;17.48;8.43;;;;;;;-3.30;65.33;102276.25;1713412;83;21254;-67
2022/03/21 00:43:13;;;;;;;16.73;8.40;;;;;;;-3.30;65.52;102273.67;1681059;85;21089;-67
2022/03/21 00:45:39;;;;;;;18.48;8.78;;;;;;;-3.31;65.75;102279.64;1685915;85;21075;-67
2022/03/21 00:48:06;;;;;;;17.05;7.90;;;;;;;-3.33;66.28;102276.09;1685960;85;21625;-68
2022/03/21 00:50:35;;;;;;;17.37;8.78;;;;;;;-3.34;66.47;102274.30;1720506;82;21535;-67
2022/03/21 00:53:02;;;;;;;21.12;9.10;;;;;;;-3.34;66.60;102276.88;1738809;82;21557;-68
2022/03/21 00:55:29;;;;;;;20.45;8.85;;;;;;;-3.35;66.79;102269.97;1750621;82;21514;-67
2022/03/21 00:57:58;;;;;;;16.75;7.95;;;;;;;-3.37;66.77;102267.70;1714556;82;21160;-69
2022/03/21 01:00:28;;;;;;;19.77;9.10;;;;;;;-3.38;67.02;102259.52;1750533;82;21029;-68
2022/03/21 01:02:58;;;;;;;21.23;8.38;;;;;;;-3.37;66.98;102262.55;1714788;83;21541;-68
2022/03/21 01:05:25;;;;;;;16.87;7.80;;;;;;;-3.41;66.89;102267.93;1750403;81;21189;-67
2022/03/21 01:07:51;;;;;;;19.02;9.20;;;;;;;-3.44;67.16;102260.45;1750664;82;21054;-68
2022/03/21 01:10:21;;;;;;;18.62;8.80;;;;;;;-3.46;67.40;102264.64;1714586;83;21589;-67
2022/03/21 01:12:48;;;;;;;19.42;8.98;;;;;;;-3.48;67.80;102264.95;1714896;83;21033;-68
2022/03/21 01:15:18;;;;;;;19.82;9.38;;;;;;;-3.49;67.92;102265.77;1750714;81;21073;-66
2022/03/21 01:17:47;;;;;;;17.85;7.87;;;;;;;-3.50;68.27;102259.70;1714675;83;21085;-67
2022/03/21 01:20:20;;;;;;;23.65;10.60;;;;;;;-3.51;68.37;102261.81;1750522;82;21625;-67
2022/03/21 01:22:47;;;;;;;23.60;10.40;;;;;;;-3.52;68.49;102263.92;1750531;82;21326;-67
2022/03/21 01:25:15;;;;;;;23.73;10.53;;;;;;;-3.52;68.76;102260.42;1750712;82;21077;-69
2022/03/21 01:27:42;;;;;;;19.85;10.05;;;;;;;-3.55;68.93;102256.00;1750429;82;21057;-68
2022/03/21 01:30:12;;;;;;;21.12;9.55;;;;;;;-3.55;69.11;102256.41;1751033;82;21199;-67
2022/03/21 01:32:42;;;;;;;24.47;9.93;;;;;;;-3.55;69.21;102257.70;1750766;82;21598;-67
2022/03/21 01:35:11;;;;;;;22.25;10.60;;;;;;;-3.57;69.08;102264.45;1750589;82;21077;-66
2022/03/21 01:37:37;;;;;;;17.57;9.20;;;;;;;-3.60;69.19;102258.33;1750632;82;21070;-68
2022/03/21 01:40:07;;;;;;;18.52;9.33;;;;;;;-3.63;69.39;102256.88;1714513;83;21068;-67
2022/03/21 01:42:33;;;;;;;22.65;10.20;;;;;;;-3.67;69.56;102260.08;1750493;82;21143;-66
2022/03/21 01:45:00;;;;;;;23.75;10.45;;;;;;;-3.69;69.69;102256.94;1743188;82;21046;-67
2022/03/21 01:47:26;;;;;;;21.23;9.68;;;;;;;-3.73;69.76;102251.13;1742734;81;21070;-68
2022/03/21 01:49:55;;;;;;;20.15;9.60;;;;;;;-3.76;69.93;102251.85;1688872;84;21064;-68
2022/03/21 01:52:21;;;;;;;21.68;9.53;;;;;;;-3.78;69.97;102248.30;1678052;85;22041;-69
2022/03/21 01:57:34;;;;;;;19.15;9.83;;;;;;;-3.79;70.29;102246.55;1678080;85;21529;-67
2022/03/21 02:00:00;;;;;;;25.10;9.88;;;;;;;-3.82;70.37;102245.06;1678371;85;21589;-68
2022/03/21 02:02:27;;;;;;;19.73;9.30;;;;;;;-3.83;70.50;102243.31;1678196;85;21092;-68
2022/03/21 02:04:53;;;;;;;24.75;10.00;;;;;;;-3.85;70.84;102248.77;1673681;85;21107;-67
2022/03/21 02:07:20;;;;;;;18.62;8.85;;;;;;;-3.85;71.05;102256.09;1677986;85;21254;-68
2022/03/21 02:09:47;;;;;;;23.65;10.90;;;;;;;-3.85;71.29;102253.92;1650769;85;21097;-67
2022/03/21 02:12:15;;;;;;;22.82;10.15;;;;;;;-3.85;71.37;102256.49;1677984;85;21064;-68
2022/03/21 02:14:43;;;;;;;23.38;9.90;;;;;;;-3.86;71.22;102250.87;1678238;85;21497;-66
2022/03/21 02:17:10;;;;;;;18.67;9.13;;;;;;;-3.87;71.31;102251.66;1673796;85;21131;-67
2022/03/21 02:19:38;;;;;;;17.02;8.98;;;;;;;-3.88;71.40;102254.64;1678188;85;21978;-66
2022/03/21 02:22:47;;;;;;;16.50;8.63;;;;;;;-3.88;71.56;102258.50;1677974;85;21092;-68
2022/03/21 02:25:33;;;;;;;20.95;10.05;;;;;;;-3.87;71.39;102263.24;1678160;85;21041;-66
2022/03/21 02:28:07;;;;;;;19.55;8.73;;;;;;;-3.90;71.67;102247.63;1678086;85;21100;-68
2022/03/21 02:30:44;;;;;;;25.77;10.53;;;;;;;-3.92;71.75;102242.80;1678171;85;21049;-67
2022/03/21 02:33:15;;;;;;;19.42;8.60;;;;;;;-3.95;71.96;102256.80;1678153;85;21165;-68
2022/03/21 02:35:44;;;;;;;;;;;;;;;-3.95;72.41;102252.94;1680554;85;21081;-67
2022/03/21 02:38:11;;;;;;;18.80;9.10;;;;;;;-3.98;72.84;102255.31;1678454;85;20219;-67
2022/03/21 02:40:37;;;;;;;18.42;8.55;;;;;;;-4.01;72.72;102247.03;1678168;85;21048;-66
2022/03/21 02:43:04;;;;;;;27.10;8.93;;;;;;;-4.05;72.87;102248.94;1678181;85;21085;-70
2022/03/21 02:45:32;;;;;;;19.30;9.10;;;;;;;-4.06;73.03;102250.63;1686684;85;21149;-68
2022/03/21 02:48:00;;;;;;;18.85;9.05;;;;;;;-4.08;73.18;102248.36;1686614;85;21057;-69
2022/03/21 02:50:43;;;;;;;25.95;10.10;;;;;;;-4.08;73.31;102243.63;1688076;85;21054;-68
2022/03/21 02:53:12;;;;;;;21.27;9.85;;;;;;;-4.09;73.55;102247.89;1688864;85;21137;-67
2022/03/21 02:55:40;;;;;;;24.60;10.78;;;;;;;-4.08;74.08;102235.50;1688357;85;21097;-67
2022/03/21 02:58:07;;;;;;;22.13;10.55;;;;;;;-4.08;74.27;102248.36;1688339;85;21295;-67
2022/03/21 03:00:34;;;;;;;23.38;10.28;;;;;;;-4.06;74.44;102242.03;1687518;85;21097;-68
2022/03/21 03:03:00;;;;;;;21.17;9.48;;;;;;;-4.07;74.37;102241.15;1691201;84;21096;-68
2022/03/21 03:05:27;;;;;;;24.52;10.63;;;;;;;-4.09;74.51;102242.75;1691129;84;21052;-68
2022/03/21 03:07:54;;;;;;;23.27;9.68;;;;;;;-4.08;74.50;102245.79;1691004;84;21052;-67
2022/03/21 03:10:21;;;;;;;21.90;9.93;;;;;;;-4.07;74.60;102243.72;1691017;84;21266;-69
2022/03/21 03:12:48;;;;;;;25.15;10.45;;;;;;;-4.09;74.46;102242.75;1690963;84;21111;-67
2022/03/21 03:15:16;;;;;;;29.02;11.22;;;;;;;-4.10;74.44;102240.95;1691018;84;21036;-68
2022/03/21 03:17:44;;;;;;;21.82;9.93;;;;;;;-4.11;74.46;102240.48;1691007;84;21544;-67
2022/03/21 03:20:11;;;;;;;25.70;11.05;;;;;;;-4.11;74.57;102236.63;1690866;84;21036;-68
2022/03/21 03:22:39;;;;;;;24.45;10.68;;;;;;;-4.10;74.88;102233.23;1690734;84;21262;-66
2022/03/21 03:25:07;;;;;;;21.82;9.98;;;;;;;-4.10;74.99;102243.53;1691282;84;21088;-66
2022/03/21 03:27:34;;;;;;;21.70;10.28;;;;;;;-4.10;75.02;102240.95;1690868;84;21056;-67
2022/03/21 03:30:01;;;;;;;21.97;10.90;;;;;;;-4.12;75.08;102239.98;1691545;84;21020;-67
2022/03/21 03:32:29;;;;;;;22.22;10.55;;;;;;;-4.14;75.20;102244.18;1691117;84;21032;-67
2022/03/21 03:34:55;;;;;;;18.90;8.78;;;;;;;-4.15;75.17;102254.38;1691014;84;21249;-68
2022/03/21 03:37:22;;;;;;;22.25;10.50;;;;;;;-4.19;75.30;102248.16;1691075;84;21036;-67
2022/03/21 03:39:49;;;;;;;24.32;10.28;;;;;;;-4.20;75.71;102238.67;1690956;84;21092;-67
2022/03/21 03:42:15;;;;;;;25.35;10.25;;;;;;;-4.18;75.91;102243.52;1688476;84;21102;-67
2022/03/21 03:44:43;;;;;;;25.32;10.40;;;;;;;-4.20;75.93;102232.65;1688533;84;21007;-68
2022/03/21 03:47:09;;;;;;;22.32;10.50;;;;;;;-4.23;76.10;102228.22;1721008;82;21557;-68
2022/03/21 03:49:37;;;;;;;22.25;10.93;;;;;;;-4.23;76.63;102229.10;1720597;83;21043;-68
2022/03/21 03:52:06;;;;;;;29.10;11.55;;;;;;;-4.21;77.12;102227.88;1720726;83;21113;-67
2022/03/21 03:54:32;;;;;;;28.15;11.88;;;;;;;-4.19;77.38;102225.00;1720753;83;21556;-68
2022/03/21 03:56:59;;;;;;;24.37;10.85;;;;;;;-4.17;77.80;102220.83;1720658;83;21449;-68
2022/03/21 03:59:25;;;;;;;22.00;11.10;;;;;;;-4.16;78.06;102214.90;1720793;82;21229;-67
2022/03/21 04:01:53;;;;;;;23.47;11.35;;;;;;;-4.15;78.45;102219.23;1720694;82;21059;-68
2022/03/21 04:04:20;;;;;;;23.42;11.70;;;;;;;-4.10;79.15;102220.37;1720706;82;21098;-67
2022/03/21 04:06:46;;;;;;;23.22;10.43;;;;;;;-4.06;79.33;102222.31;1720631;83;21595;-68
2022/03/21 04:09:14;;;;;;;23.12;11.33;;;;;;;-4.02;79.44;102215.27;1721004;82;21042;-68
2022/03/21 04:11:41;;;;;;;25.72;12.30;;;;;;;-3.97;79.93;102221.07;1720916;83;21167;-67
2022/03/21 04:14:09;;;;;;;20.77;10.90;;;;;;;-3.89;80.43;102227.52;1720754;82;21075;-68
2022/03/21 04:16:39;;;;;;;27.85;11.08;;;;;;;-3.80;81.10;102225.45;1720861;83;21086;-67
2022/03/21 04:19:05;;;;;;;25.35;11.80;;;;;;;-3.72;81.39;102225.48;1720982;83;21036;-67
2022/03/21 04:21:33;;;;;;;22.95;10.93;;;;;;;-3.64;81.66;102225.88;1720825;82;21087;-67
2022/03/21 04:24:00;;;;;;;25.27;11.38;;;;;;;-3.60;81.45;102229.99;1720962;82;21162;-68
2022/03/21 04:26:27;;;;;;;29.07;12.93;;;;;;;-3.55;81.51;102224.21;1720781;82;21025;-67
2022/03/21 04:28:55;;;;;;;26.35;12.45;;;;;;;-3.48;81.70;102227.19;1720856;82;21066;-68
2022/03/21 04:31:22;;;;;;;29.07;12.10;;;;;;;-3.34;82.43;102220.20;1720723;82;21570;-67
2022/03/21 04:33:49;;;;;;;26.30;12.55;;;;;;;-2.83;83.51;102218.58;1720514;83;21127;-67
2022/03/21 04:36:19;;;;;;;31.65;13.68;;;;;;;-2.11;83.09;102216.09;1720534;82;21031;-67
2022/03/21 04:38:46;;;;;;;24.92;12.23;;;;;;;-1.44;81.29;102218.77;1720673;83;21067;-68
2022/03/21 04:41:14;;;;;;;25.65;11.90;;;;;;;-0.82;78.64;102220.65;1720602;82;21024;-67
2022/03/21 04:43:42;;;;;;;23.00;11.05;;;;;;;-0.28;75.67;102219.87;1720832;83;21087;-68
2022/03/21 04:46:09;;;;;;;28.27;12.25;;;;;;;0.18;73.57;102229.51;1713514;82;21088;-67
2022/03/21 04:48:37;;;;;;;28.60;11.18;;;;;;;0.52;72.21;102210.03;1713068;82;21109;-68
2022/03/21 04:51:04;;;;;;;20.27;10.80;;;;;;;1.09;71.41;102217.29;1712927;82;21050;-68
2022/03/21 04:53:31;;;;;;;23.73;11.50;;;;;;;1.73;69.73;102215.12;1713052;83;20998;-67
2022/03/21 04:55:58;;;;;;;21.70;12.35;;;;;;;2.37;67.59;102208.42;1712861;83;21065;-69
2022/03/21 04:58:25;;;;;;;21.82;12.00;;;;;;;2.93;65.53;102210.49;1713057;82;21038;-69
2022/03/21 05:00:52;;;;;;;23.60;12.75;;;;;;;3.17;63.56;102211.56;1713437;82;21861;-68
2022/03/21 05:03:18;;;;;;;24.85;11.73;;;;;;;3.49;61.51;102212.40;1713030;83;21061;-68
2022/03/21 05:05:47;;;;;;;22.22;11.68;;;;;;;3.88;60.45;102213.35;1712874;83;21527;-68
2022/03/21 05:08:13;;;;;;;20.50;11.25;;;;;;;4.37;58.97;102224.89;1712860;83;22067;-70
2022/03/21 05:10:42;;;;;;;25.30;12.53;;;;;;;4.86;57.40;102224.64;1712998;82;21182;-68
2022/03/21 05:13:10;;;;;;;20.57;11.85;;;;;;;5.34;54.79;102233.39;1713063;83;21034;-68
2022/03/21 05:15:37;;;;;;;25.55;11.80;;;;;;;5.74;53.98;102224.92;1713084;82;21067;-68
2022/03/21 05:18:04;;;;;;;21.50;11.48;;;;;;;6.22;53.10;102213.48;1712979;83;21195;-69
2022/03/21 05:20:33;;;;;;;22.87;11.25;;;;;;;6.86;51.90;102217.38;1713008;82;21555;-68
2022/03/21 05:31:15;;;;;;;20.27;10.82;;;;;;;8.83;45.02;102219.77;1713146;83;21002;-67
2022/03/21 05:36:27;;;;;;;16.37;10.40;;;;;;;9.42;43.29;102222.10;1712978;83;21574;-68
2022/03/21 05:38:55;;;;;;;17.30;10.58;;;;;;;10.00;41.92;102222.54;1712889;83;21593;-70
2022/03/21 05:41:21;;;;;;;15.23;9.98;;;;;;;10.25;41.73;102215.48;1713046;83;21053;-67
2022/03/21 05:43:49;;;;;;;17.42;10.53;;;;;;;10.67;40.76;102210.56;1678262;85;21487;-69
2022/03/21 05:46:18;;;;;;;16.25;10.13;;;;;;;10.99;39.44;102221.36;1724032;83;21065;-68
2022/03/21 05:48:51;;;;;;;16.57;9.80;;;;;;;11.22;38.79;102215.08;1725831;83;21591;-68
2022/03/21 05:51:27;;;;;;;17.95;9.93;;;;;;;11.59;38.58;102226.69;1725873;82;21107;-68
2022/03/21 05:53:56;;;;;;;17.60;10.48;;;;;;;12.06;37.56;102222.81;1725734;83;22262;-68
2022/03/21 05:56:25;;;;;;;18.62;10.72;;;;;;;12.26;36.27;102226.13;1725768;83;21126;-69
2022/03/21 05:58:52;;;;;;;18.62;10.23;;;;;;;12.45;36.17;102233.85;1725749;81;21173;-69
2022/03/21 06:01:23;;;;;;;20.25;10.32;;;;;;;12.60;35.77;102232.33;1726031;81;21506;-69
2022/03/21 06:03:54;;;;;;;15.13;8.95;;;;;;;12.90;35.17;102237.67;1725577;83;21150;-69
2022/03/21 06:06:22;;;;;;;18.55;9.78;;;;;;;13.30;34.54;102232.34;1691029;84;21060;-66
2022/03/21 06:08:50;;;;;;;14.90;9.08;;;;;;;13.62;33.71;102228.73;1690865;84;21131;-68
2022/03/21 06:11:18;;;;;;;17.82;10.60;;;;;;;13.96;33.41;102228.14;1690699;84;21069;-67
2022/03/21 06:13:45;;;;;;;14.30;9.33;;;;;;;14.30;32.83;102232.83;1690899;84;21548;-67
2022/03/21 06:16:12;;;;;;;15.50;9.55;;;;;;;14.53;32.53;102234.16;1673610;85;22072;-69
2022/03/21 06:18:39;;;;;;;16.55;9.75;;;;;;;14.90;31.92;102237.82;1673354;85;21602;-67
2022/03/21 06:21:08;;;;;;;16.52;9.45;;;;;;;15.20;31.42;102242.50;1673509;85;21073;-68
2022/03/21 06:23:34;;;;;;;15.25;9.93;;;;;;;15.25;30.83;102244.16;1673134;85;21153;-67
2022/03/21 06:26:01;;;;;;;14.75;9.65;;;;;;;15.24;30.79;102246.83;1673499;85;21157;-68
2022/03/21 06:28:28;;;;;;;16.87;9.93;;;;;;;15.51;30.71;102247.98;1674833;84;21250;-68
2022/03/21 06:30:57;;;;;;;19.80;9.53;;;;;;;15.89;29.59;102248.83;1701615;84;21110;-67
2022/03/21 06:33:29;;;;;;;19.73;9.65;;;;;;;15.89;29.38;102253.69;1701461;84;21074;-68
2022/03/21 06:35:58;;;;;;;14.65;8.93;;;;;;;15.74;29.11;102250.11;1701558;84;21077;-67
2022/03/21 06:38:25;;;;;;;15.40;8.43;;;;;;;15.66;29.55;102251.57;1701709;84;21571;-68
2022/03/21 06:40:51;;;;;;;13.28;8.48;;;;;;;15.88;29.65;102252.41;1701461;84;21156;-68
2022/03/21 06:43:22;;;;;;;13.38;8.10;;;;;;;16.28;28.82;102243.38;1701514;84;21032;-68
2022/03/21 06:45:51;;;;;;;17.02;8.90;;;;;;;16.68;28.38;102248.47;1701474;84;21050;-68
2022/03/21 06:48:19;;;;;;;12.23;8.53;;;;;;;16.69;27.98;102251.99;1719794;83;21069;-68
2022/03/21 06:50:46;;;;;;;14.68;8.85;;;;;;;16.62;28.21;102257.08;1695230;83;21107;-68
2022/03/21 06:53:14;;;;;;;13.80;8.38;;;;;;;16.53;27.68;102257.73;1690771;84;21155;-68
2022/03/21 06:55:42;;;;;;;17.10;8.88;;;;;;;16.25;28.24;102259.42;1690634;84;21039;-68
2022/03/21 06:58:11;;;;;;;16.57;9.00;;;;;;;16.21;28.50;102263.08;1690864;83;21608;-68
2022/03/21 07:00:39;;;;;;;13.68;8.88;;;;;;;16.48;28.55;102262.32;1690696;84;21043;-68
2022/03/21 07:03:07;;;;;;;18.52;9.38;;;;;;;17.06;27.68;102258.92;1691139;84;21087;-68
2022/03/21 07:05:36;;;;;;;13.15;8.13;;;;;;;17.43;27.06;102253.31;1690909;84;21140;-69
2022/03/21 07:08:04;;;;;;;12.85;8.15;;;;;;;17.58;27.04;102249.30;1691089;84;21048;-67
2022/03/21 07:10:35;;;;;;;14.73;8.75;;;;;;;17.75;26.49;102250.94;1690894;84;21075;-70
2022/03/21 07:13:04;;;;;;;;;;;;;;;17.90;26.41;102250.03;1693764;84;21067;-68
2022/03/21 07:15:37;;;;;;;16.93;8.85;;;;;;;18.19;26.21;102245.90;1691023;84;20151;-68
2022/03/21 07:18:09;;;;;;;13.50;8.85;;;;;;;18.20;25.56;102246.33;1665437;84;21024;-68
2022/03/21 07:20:37;;;;;;;14.55;9.13;;;;;;;18.10;26.04;102248.88;1691179;84;21565;-69
2022/03/21 07:23:04;;;;;;;16.00;9.40;;;;;;;18.22;25.85;102243.14;1691221;84;21588;-67
2022/03/21 07:25:31;;;;;;;15.28;10.00;;;;;;;18.62;25.53;102247.48;1690989;84;21056;-68
2022/03/21 07:27:58;;;;;;;19.55;10.50;;;;;;;18.99;25.40;102244.32;1691160;84;21260;-68
2022/03/21 07:30:26;;;;;;;17.45;9.53;;;;;;;19.27;25.03;102238.75;1690985;84;21316;-68
2022/03/21 07:32:54;;;;;;;15.75;9.48;;;;;;;19.46;24.76;102237.56;1690876;84;21052;-67
2022/03/21 07:35:20;;;;;;;13.20;8.63;;;;;;;19.77;24.41;102242.14;1690962;84;21099;-69
2022/03/21 07:37:50;;;;;;;15.15;9.28;;;;;;;20.12;23.83;102247.30;1690909;84;21045;-67
2022/03/21 07:40:18;;;;;;;11.68;8.10;;;;;;;20.18;23.61;102243.03;1690990;84;21009;-69
2022/03/21 07:42:46;;;;;;;13.30;8.48;;;;;;;20.34;23.40;102244.56;1691050;84;21257;-68
2022/03/21 07:47:59;;;;;;;16.93;9.18;;;;;;;21.10;22.98;102254.91;1671001;85;21081;-69
2022/03/21 07:50:26;;;;;;;15.18;9.40;;;;;;;21.24;22.59;102244.02;1676477;85;21022;-68
2022/03/21 07:52:55;;;;;;;11.33;7.45;;;;;;;21.30;22.67;102244.59;1678518;85;21072;-69
2022/03/21 07:55:21;;;;;;;34.20;8.00;;;;;;;21.41;22.39;102237.37;1713341;83;21243;-67
2022/03/21 07:57:48;;;;;;;9.60;6.65;;;;;;;21.56;22.01;102225.91;1678827;85;21052;-68
2022/03/21 08:00:16;;;;;;;11.80;6.80;;;;;;;21.81;21.89;102235.40;1678895;85;21049;-68
2022/03/21 08:02:45;;;;;;;10.35;6.53;;;;;;;22.06;21.74;102232.77;1712971;83;21057;-69
2022/03/21 08:05:13;;;;;;;9.03;5.95;;;;;;;22.13;20.76;102231.50;1678749;85;21633;-68
2022/03/21 08:07:41;;;;;;;8.98;5.55;;;;;;;21.97;21.13;102229.63;1712838;83;21107;-68
2022/03/21 08:10:10;;;;;;;9.33;5.78;;;;;;;22.09;20.88;102225.92;1712827;83;21837;-68
2022/03/21 08:12:42;;;;;;;10.35;5.65;;;;;;;22.16;20.72;102224.66;1678669;85;21537;-69
2022/03/21 08:15:11;;;;;;;7.85;5.08;;;;;;;22.31;20.58;102219.82;1713032;83;21018;-67
2022/03/21 08:18:03;;;;;;;;;;;;;;;22.44;20.09;102219.19;1681295;85;21093;-68
2022/03/21 08:20:33;;;;;;;10.58;4.83;;;;;;;22.46;20.11;102219.97;1678489;85;20173;-68
2022/03/21 08:23:05;;;;;;;8.38;4.53;;;;;;;22.55;19.67;102218.13;1713092;83;21050;-68
2022/03/21 08:25:34;;;;;;;7.37;4.12;;;;;;;22.62;19.71;102224.90;1712855;82;21220;-69
2022/03/21 08:28:01;;;;;;;10.23;4.83;;;;;;;22.36;19.61;102211.08;1678632;85;21530;-68
2022/03/21 08:30:32;;;;;;;8.08;5.03;;;;;;;21.75;20.00;102206.20;1678497;85;21065;-68
2022/03/21 08:32:56;;;;;;;9.45;4.97;;;;;;;21.35;20.66;102210.86;1712876;82;21188;-68
2022/03/21 08:35:23;;;;;;;8.58;5.25;;;;;;;21.42;20.39;102208.30;1678375;85;21052;-69
2022/03/21 08:37:49;;;;;;;10.18;5.17;;;;;;;21.56;20.62;102204.45;1678394;85;21061;-69
2022/03/21 08:40:16;;;;;;;6.95;4.30;;;;;;;21.60;20.32;102199.78;1678520;85;21109;-68
2022/03/21 08:42:43;;;;;;;7.60;4.50;;;;;;;21.55;20.27;102191.12;1678423;85;21022;-70
2022/03/21 08:45:10;;;;;;;7.08;4.50;;;;;;;21.86;20.13;102201.16;1713086;83;21255;-70
2022/03/21 08:47:37;;;;;;;8.38;4.00;;;;;;;22.29;19.65;102193.56;1691007;84;21035;-68
2022/03/21 08:50:05;;;;;;;9.25;3.87;;;;;;;22.28;19.33;102201.69;1691561;84;21062;-70
2022/03/21 08:52:34;;;;;;;6.87;4.15;;;;;;;22.09;19.56;102196.41;1691340;84;20989;-67
2022/03/21 08:55:02;;;;;;;6.80;3.70;;;;;;;21.90;19.76;102200.50;1691199;84;21100;-68
2022/03/21 08:57:28;;;;;;;7.25;3.90;;;;;;;21.89;19.64;102196.96;1691452;84;21424;-68
2022/03/21 08:59:55;;;;;;;5.22;3.05;;;;;;;21.63;19.41;102194.77;1691154;84;21071;-68
2022/03/21 09:02:21;;;;;;;5.00;2.75;;;;;;;21.11;19.58;102197.70;1691176;84;21077;-69
2022/03/21 09:04:48;;;;;;;8.03;3.47;;;;;;;21.09;19.74;102206.28;1650530;85;21074;-68
2022/03/21 09:07:16;;;;;;;8.38;3.37;;;;;;;21.30;19.87;102196.80;1673530;85;21085;-69
2022/03/21 09:09:42;;;;;;;6.33;3.50;;;;;;;21.44;19.27;102190.34;1673635;85;21597;-70
2022/03/21 09:12:10;;;;;;;6.67;3.30;;;;;;;21.58;19.68;102195.00;1673390;85;21034;-68
2022/03/21 09:14:37;;;;;;;5.70;3.20;;;;;;;21.87;19.29;102194.83;1673527;85;21059;-68
2022/03/21 09:17:04;;;;;;;4.62;2.98;;;;;;;21.93;19.10;102190.98;1673452;85;21050;-69
2022/03/21 09:19:33;;;;;;;7.35;3.35;;;;;;;22.05;19.18;102187.64;1691147;84;21037;-69
2022/03/21 09:22:00;;;;;;;5.78;2.90;;;;;;;22.13;18.93;102187.22;1673640;85;22091;-69
2022/03/21 09:24:27;;;;;;;9.55;3.05;;;;;;;21.92;18.81;102183.38;1673574;85;21554;-68
2022/03/21 09:26:54;;;;;;;3.60;2.20;;;;;;;21.70;18.82;102184.12;1673542;85;21071;-70
2022/03/21 09:29:21;;;;;;;8.05;2.90;;;;;;;21.30;19.04;102182.06;1673573;85;21114;-68
2022/03/21 09:31:48;;;;;;;7.10;2.55;;;;;;;21.27;19.13;102180.88;1673335;85;21035;-69
2022/03/21 09:34:16;;;;;;;10.95;3.40;;;;;;;21.34;18.99;102178.29;1673656;85;21316;-68
2022/03/21 09:36:44;;;;;;;5.47;2.90;;;;;;;21.40;19.00;102169.09;1673343;85;21099;-68
2022/03/21 09:39:12;;;;;;;6.10;2.67;;;;;;;21.32;19.42;102174.81;1673424;85;21065;-68
2022/03/21 09:41:39;;;;;;;4.15;2.58;;;;;;;21.60;19.13;102168.09;1673478;85;21102;-69
2022/03/21 09:44:09;;;;;;;8.90;3.22;;;;;;;21.95;19.21;102164.46;1673551;85;21170;-69
2022/03/21 09:46:42;;;;;;;6.47;2.95;;;;;;;22.43;18.79;102167.77;1669929;85;21818;-67
2022/03/21 09:49:15;;;;;;;7.08;3.25;;;;;;;22.72;18.51;102157.62;1679094;85;21628;-68
2022/03/21 09:51:39;;;;;;;8.75;3.22;;;;;;;22.92;18.27;102157.00;1682898;85;21564;-67
2022/03/21 09:54:08;;;;;;;7.97;3.70;;;;;;;22.56;18.51;102156.75;1683431;85;21092;-70
2022/03/21 09:56:34;;;;;;;7.78;4.10;;;;;;;22.66;18.63;102164.70;1683584;85;21006;-69
2022/03/21 09:59:01;;;;;;;6.05;3.40;;;;;;;22.62;18.43;102156.42;1683566;83;21240;-68
2022/03/21 10:01:33;;;;;;;7.40;3.80;;;;;;;22.50;18.49;102151.71;1683458;85;21123;-68
2022/03/21 10:04:00;;;;;;;6.15;3.02;;;;;;;22.29;18.61;102153.31;1683690;85;21032;-69
2022/03/21 10:06:40;;;;;;;5.80;3.87;;;;;;;21.88;19.08;102153.67;1683640;85;21317;-70
2022/03/21 10:09:19;;;;;;;6.30;3.58;;;;;;;21.53;19.18;102140.73;1683795;85;21576;-69
2022/03/21 10:11:57;;;;;;;10.65;3.90;;;;;;;21.45;19.50;102148.31;1683964;85;21474;-68
2022/03/21 10:14:32;;;;;;;7.97;3.80;;;;;;;21.32;19.50;102152.90;1683030;85;21550;-67
2022/03/21 10:17:08;;;;;;;7.15;3.77;;;;;;;21.22;19.89;102146.76;1683764;85;21023;-68
2022/03/21 10:19:48;;;;;;;9.53;3.95;;;;;;;21.28;19.68;102143.75;1683818;85;21060;-68
2022/03/21 10:22:43;;;;;;;9.60;3.47;;;;;;;21.45;19.38;102146.49;1683928;85;21013;-68
2022/03/21 10:25:10;;;;;;;6.47;3.52;;;;;;;21.25;19.70;102145.25;1683154;85;21287;-69
2022/03/21 10:27:40;;;;;;;6.90;3.25;;;;;;;21.15;19.84;102140.35;1683518;85;21084;-69
2022/03/21 10:30:10;;;;;;;6.30;3.30;;;;;;;21.16;19.84;102134.06;1683603;85;21549;-68
2022/03/21 10:32:44;;;;;;;7.15;3.58;;;;;;;20.97;19.91;102127.01;1683941;85;21033;-69
2022/03/21 10:35:22;;;;;;;8.80;3.47;;;;;;;20.81;20.42;102130.90;1683635;85;21072;-69
2022/03/21 10:37:58;;;;;;;9.33;3.80;;;;;;;20.92;20.29;102121.87;1683346;85;21186;-68
2022/03/21 10:40:44;;;;;;;7.22;3.12;;;;;;;21.31;19.80;102119.50;1683547;85;21041;-66
2022/03/21 10:43:18;;;;;;;7.53;3.35;;;;;;;21.50;19.65;102124.33;1683595;85;21029;-68
2022/03/21 10:45:55;;;;;;;6.92;3.27;;;;;;;21.20;19.76;102116.49;1682704;85;21080;-70
2022/03/21 10:48:29;;;;;;;7.45;3.27;;;;;;;20.99;20.09;102112.59;1683073;85;21080;-69
2022/03/21 10:51:00;;;;;;;8.85;3.40;;;;;;;21.16;20.30;102109.06;1678658;85;21143;-69
2022/03/21 10:53:32;;;;;;;6.95;3.52;;;;;;;21.52;19.78;102103.68;1678227;85;26934;-70
2022/03/21 10:56:07;;;;;;;7.87;3.62;;;;;;;21.43;19.65;102108.17;1678098;85;21141;-70
2022/03/21 11:01:22;;;;;;;9.78;3.70;;;;;;;21.69;19.97;102105.47;1795445;79;22450;-69
2022/03/21 11:03:51;;;;;;;9.80;3.22;;;;;;;21.90;19.59;102110.20;1755888;81;22036;-70
2022/03/21 11:06:19;;;;;;;6.95;3.42;;;;;;;21.81;19.51;102098.62;1755518;81;21124;-69
2022/03/21 11:08:58;;;;;;;7.72;3.65;;;;;;;21.79;19.81;102095.15;1755846;81;21132;-68
2022/03/21 11:11:25;;;;;;;7.10;3.50;;;;;;;21.76;19.71;102103.34;1756103;81;21014;-70
2022/03/21 11:13:54;;;;;;;10.08;4.00;;;;;;;21.38;20.02;102096.80;1756089;81;21049;-69
2022/03/21 11:16:26;;;;;;;12.20;3.67;;;;;;;21.20;20.38;102094.58;1755999;81;21123;-69
2022/03/21 11:18:57;;;;;;;6.17;2.87;;;;;;;21.25;20.51;102095.69;1755682;81;21153;-69
2022/03/21 11:21:23;;;;;;;8.65;2.98;;;;;;;21.33;20.36;102094.83;1756185;81;21061;-69
2022/03/21 11:23:53;;;;;;;10.40;3.10;;;;;;;21.65;19.95;102094.98;1756368;81;21029;-70
2022/03/21 11:26:48;;;;;;;8.33;2.92;;;;;;;21.71;20.00;102076.77;1756440;81;21033;-69
2022/03/21 11:30:02;;;;;;;7.67;3.25;;;;;;;21.68;20.05;102083.64;1756219;81;21556;-70
2022/03/21 11:33:03;;;;;;;4.90;2.62;;;;;;;21.55;20.16;102080.72;1756431;81;21624;-68
2022/03/21 11:35:36;;;;;;;6.33;2.80;;;;;;;21.54;20.35;102087.05;1756071;81;21109;-70
2022/03/21 11:38:36;;;;;;;7.00;2.92;;;;;;;21.48;20.43;102083.33;1755946;81;22116;-70
2022/03/21 11:41:22;;;;;;;10.30;3.60;;;;;;;21.35;20.46;102071.51;1756183;81;21127;-71
2022/03/21 11:44:16;;;;;;;8.50;3.65;;;;;;;21.17;21.02;102070.63;1755788;81;21561;-71
2022/03/21 11:46:47;;;;;;;11.15;3.45;;;;;;;20.85;21.18;102066.89;1756131;81;21125;-69
2022/03/21 11:49:25;;;;;;;;;;;;;;;20.43;21.69;102067.98;1757437;81;21597;-69